createdAt,value
2023-02-17T00:00:56.546Z,-0.10
2023-02-17T00:03:24.951Z,-0.20
2023-02-17T00:05:53.186Z,-0.20
2023-02-17T00:08:20.445Z,-0.20
2023-02-17T00:10:58.295Z,-0.20
2023-02-17T00:13:25.988Z,-0.30
2023-02-17T00:15:53.406Z,-0.30
2023-02-17T00:18:20.745Z,-0.20
2023-02-17T00:20:47.886Z,-0.20
2023-02-17T00:23:15.065Z,-0.10
2023-02-17T00:25:42.225Z,-0.20
2023-02-17T00:28:09.434Z,-0.20
2023-02-17T00:30:39.417Z,-0.20
2023-02-17T00:33:06.687Z,-0.30
2023-02-17T00:35:33.917Z,-0.30
2023-02-17T00:38:01.163Z,-0.40
2023-02-17T00:40:28.264Z,-0.50
2023-02-17T00:42:55.554Z,-0.50
2023-02-17T00:45:22.727Z,-0.50
2023-02-17T00:47:49.915Z,-0.50
2023-02-17T00:50:17.527Z,-0.50
2023-02-17T00:52:44.756Z,-0.50
2023-02-17T00:55:12.217Z,-0.50
2023-02-17T00:57:39.404Z,-0.50
2023-02-17T01:00:07.214Z,-0.50
2023-02-17T01:02:34.597Z,-0.60
2023-02-17T01:05:01.742Z,-0.60
2023-02-17T01:07:28.929Z,-0.60
2023-02-17T01:09:56.087Z,-0.60
2023-02-17T01:12:23.357Z,-0.70
2023-02-17T01:14:52.046Z,-0.70
2023-02-17T01:17:19.293Z,-0.70
2023-02-17T01:19:46.722Z,-0.70
2023-02-17T01:22:14.163Z,-0.80
2023-02-17T01:24:41.313Z,-0.80
2023-02-17T01:27:08.554Z,-0.70
2023-02-17T01:29:35.752Z,-0.70
2023-02-17T01:32:04.089Z,-0.70
2023-02-17T01:34:31.349Z,-0.70
2023-02-17T01:36:59.635Z,-0.70
2023-02-17T01:39:26.806Z,-0.70
2023-02-17T01:41:53.991Z,-0.70
2023-02-17T01:44:24.090Z,-0.70
2023-02-17T01:46:53.735Z,-0.80
2023-02-17T01:49:22.048Z,-0.70
2023-02-17T01:52:02.490Z,-0.70
2023-02-17T01:54:36.142Z,-0.60
2023-02-17T01:57:03.943Z,-0.60
2023-02-17T01:59:32.351Z,-0.60
2023-02-17T02:02:03.034Z,-0.50
2023-02-17T02:04:33.889Z,-0.50
2023-02-17T02:07:04.338Z,-0.40
2023-02-17T02:09:36.660Z,-0.30
2023-02-17T02:12:15.955Z,-0.30
2023-02-17T02:14:46.362Z,-0.20
2023-02-17T02:17:27.417Z,-0.20
2023-02-17T02:19:57.972Z,-0.10
2023-02-17T02:22:45.107Z,-0.10
2023-02-17T02:25:32.150Z,-0.10
2023-02-17T02:28:30.859Z,0.00
2023-02-17T02:31:19.787Z,0.00
2023-02-17T02:33:59.026Z,0.00
2023-02-17T02:36:33.227Z,0.00
2023-02-17T02:39:03.343Z,0.10
2023-02-17T02:41:37.971Z,0.00
2023-02-17T02:44:08.350Z,0.00
2023-02-17T02:46:35.975Z,0.10
2023-02-17T02:49:04.808Z,0.10
2023-02-17T02:51:51.432Z,0.10
2023-02-17T02:54:40.307Z,0.10
2023-02-17T02:57:27.641Z,0.20
2023-02-17T03:00:10.476Z,0.20
2023-02-17T03:02:59.597Z,0.20
2023-02-17T03:05:27.930Z,0.30
2023-02-17T03:07:58.641Z,0.30
2023-02-17T03:10:26.187Z,0.30
2023-02-17T03:12:53.548Z,0.40
2023-02-17T03:15:28.289Z,0.40
2023-02-17T03:17:58.298Z,0.40
2023-02-17T03:20:27.872Z,0.50
2023-02-17T03:22:55.362Z,0.50
2023-02-17T03:25:24.550Z,0.60
2023-02-17T03:27:51.810Z,0.60
2023-02-17T03:30:19.365Z,0.60
2023-02-17T03:32:47.192Z,0.70
2023-02-17T03:35:14.732Z,0.70
2023-02-17T03:37:42.100Z,0.80
2023-02-17T03:40:09.778Z,0.80
2023-02-17T03:42:36.952Z,0.80
2023-02-17T03:45:05.689Z,0.80
2023-02-17T03:47:32.819Z,0.80
2023-02-17T03:49:59.991Z,0.80
2023-02-17T03:52:27.188Z,0.80
2023-02-17T03:54:54.392Z,0.90
2023-02-17T03:57:21.521Z,0.90
2023-02-17T03:59:48.650Z,0.90
2023-02-17T04:02:15.783Z,0.90
2023-02-17T04:04:43.001Z,1.00
2023-02-17T04:07:10.079Z,1.00
2023-02-17T04:09:37.299Z,0.90
2023-02-17T04:12:05.271Z,0.90
2023-02-17T04:14:32.449Z,0.90
2023-02-17T04:16:59.748Z,0.90
2023-02-17T04:19:26.953Z,0.90
2023-02-17T04:21:54.131Z,0.90
2023-02-17T04:24:21.519Z,0.90
2023-02-17T04:26:48.770Z,0.90
2023-02-17T04:29:15.958Z,0.90
2023-02-17T04:31:43.126Z,1.00
2023-02-17T04:34:10.337Z,0.90
2023-02-17T04:36:37.506Z,0.90
2023-02-17T04:39:04.596Z,0.80
2023-02-17T04:41:31.739Z,0.80
2023-02-17T04:43:58.891Z,0.80
2023-02-17T04:46:26.044Z,0.80
2023-02-17T04:48:53.504Z,0.90
2023-02-17T04:51:20.704Z,0.90
2023-02-17T04:53:48.167Z,0.90
2023-02-17T04:56:15.455Z,1.00
2023-02-17T04:58:42.848Z,1.00
2023-02-17T05:01:10.084Z,1.00
2023-02-17T05:03:37.395Z,1.00
2023-02-17T05:06:05.132Z,1.00
2023-02-17T05:08:32.543Z,1.00
2023-02-17T05:10:59.670Z,1.00
2023-02-17T05:13:27.773Z,0.90
2023-02-17T05:15:55.083Z,0.90
2023-02-17T05:18:22.396Z,0.90
2023-02-17T05:20:49.482Z,0.90
2023-02-17T05:23:17.106Z,1.00
2023-02-17T05:25:44.280Z,1.00
2023-02-17T05:28:11.594Z,1.00
2023-02-17T05:30:38.734Z,1.00
2023-02-17T05:33:05.934Z,1.00
2023-02-17T05:35:35.430Z,1.00
2023-02-17T05:38:02.566Z,0.90
2023-02-17T05:40:29.812Z,0.90
2023-02-17T05:42:56.977Z,0.80
2023-02-17T05:45:24.235Z,0.80
2023-02-17T05:47:51.460Z,0.80
2023-02-17T05:50:18.639Z,0.90
2023-02-17T05:52:49.213Z,0.90
2023-02-17T05:55:16.541Z,0.90
2023-02-17T05:57:43.742Z,0.90
2023-02-17T06:00:11.508Z,0.90
2023-02-17T06:02:39.894Z,0.80
2023-02-17T06:05:08.164Z,0.80
2023-02-17T06:07:35.416Z,0.80
2023-02-17T06:10:03.006Z,0.90
2023-02-17T06:12:30.241Z,0.80
2023-02-17T06:14:57.375Z,0.80
2023-02-17T06:17:24.519Z,0.80
2023-02-17T06:19:51.680Z,0.80
2023-02-17T06:22:18.865Z,0.80
2023-02-17T06:24:45.991Z,0.90
2023-02-17T06:27:13.223Z,0.90
2023-02-17T06:29:40.374Z,0.90
2023-02-17T06:32:07.815Z,0.80
2023-02-17T06:34:35.015Z,0.70
2023-02-17T06:37:02.183Z,0.70
2023-02-17T06:39:29.441Z,0.70
2023-02-17T06:41:56.681Z,0.70
2023-02-17T06:44:23.804Z,1.00
2023-02-17T06:46:51.028Z,1.60
2023-02-17T06:49:18.508Z,2.80
2023-02-17T06:51:45.848Z,4.50
2023-02-17T06:54:13.214Z,6.50
2023-02-17T06:56:40.790Z,8.10
2023-02-17T06:59:07.933Z,9.20
2023-02-17T07:01:35.166Z,10.00
2023-02-17T07:04:02.367Z,10.70
2023-02-17T07:06:29.808Z,11.60
2023-02-17T07:08:57.268Z,12.50
2023-02-17T07:11:24.607Z,13.10
2023-02-17T07:13:52.778Z,13.10
2023-02-17T07:16:20.013Z,12.90
2023-02-17T07:18:47.270Z,12.90
2023-02-17T07:21:15.267Z,12.30
2023-02-17T07:23:42.599Z,12.50
2023-02-17T07:26:11.835Z,12.60
2023-02-17T07:28:40.356Z,12.90
2023-02-17T07:31:09.677Z,13.20
2023-02-17T07:33:37.562Z,13.60
2023-02-17T07:36:07.755Z,12.80
2023-02-17T07:38:36.021Z,12.60
2023-02-17T07:41:08.457Z,12.30
2023-02-17T07:43:36.272Z,12.30
2023-02-17T07:46:05.440Z,12.40
2023-02-17T07:48:32.765Z,13.70
2023-02-17T07:51:19.185Z,14.90
2023-02-17T07:53:46.544Z,15.50
2023-02-17T07:56:15.771Z,16.10
2023-02-17T07:58:44.438Z,16.30
2023-02-17T08:01:15.294Z,17.30
2023-02-17T08:03:43.244Z,18.20
2023-02-17T08:06:13.475Z,18.60
2023-02-17T08:09:01.233Z,19.30
2023-02-17T08:11:49.803Z,19.70
2023-02-17T08:14:18.018Z,20.30
2023-02-17T08:16:45.324Z,19.90
2023-02-17T08:19:12.625Z,19.20
2023-02-17T08:21:40.206Z,18.00
2023-02-17T08:24:07.474Z,17.50
2023-02-17T08:26:34.650Z,17.10
2023-02-17T08:29:01.804Z,17.30
2023-02-17T08:31:32.460Z,17.40
2023-02-17T08:34:02.051Z,18.20
2023-02-17T08:36:30.027Z,19.20
2023-02-17T08:38:58.360Z,19.70
2023-02-17T08:41:25.477Z,20.40
2023-02-17T08:43:52.956Z,20.80
2023-02-17T08:46:20.601Z,20.80
2023-02-17T08:48:48.232Z,20.10
2023-02-17T08:51:19.179Z,20.10
2023-02-17T08:53:47.025Z,19.70
2023-02-17T08:56:14.170Z,20.20
2023-02-17T08:58:41.407Z,20.70
2023-02-17T09:01:08.877Z,21.40
2023-02-17T09:03:37.845Z,22.10
2023-02-17T09:06:07.127Z,22.00
2023-02-17T09:08:34.933Z,22.40
2023-02-17T09:11:02.189Z,23.00
2023-02-17T09:13:29.449Z,23.60
2023-02-17T09:15:56.756Z,23.30
2023-02-17T09:18:24.535Z,23.60
2023-02-17T09:20:52.391Z,23.90
2023-02-17T09:23:20.372Z,24.10
2023-02-17T09:25:47.733Z,24.10
2023-02-17T09:28:15.555Z,24.30
2023-02-17T09:30:43.281Z,24.10
2023-02-17T09:33:10.630Z,23.80
2023-02-17T09:35:38.300Z,23.30
2023-02-17T09:38:05.858Z,23.70
2023-02-17T09:40:50.304Z,24.10
2023-02-17T09:43:30.594Z,23.30
2023-02-17T09:46:02.430Z,22.90
2023-02-17T09:48:32.788Z,23.10
2023-02-17T09:51:06.812Z,22.90
2023-02-17T09:53:39.176Z,23.00
2023-02-17T09:56:11.637Z,23.20
2023-02-17T09:58:58.081Z,23.00
2023-02-17T10:01:31.046Z,23.00
2023-02-17T10:04:01.662Z,23.20
2023-02-17T10:06:35.995Z,23.30
2023-02-17T10:09:04.308Z,22.90
2023-02-17T10:11:34.685Z,23.00
2023-02-17T10:14:27.534Z,23.00
2023-02-17T10:17:04.108Z,22.80
2023-02-17T10:19:38.891Z,22.60
2023-02-17T10:22:10.616Z,22.20
2023-02-17T10:24:37.817Z,22.10
2023-02-17T10:27:12.417Z,21.90
2023-02-17T10:30:01.549Z,21.40
2023-02-17T10:32:30.575Z,20.90
2023-02-17T10:35:01.950Z,20.40
2023-02-17T10:37:46.053Z,20.30
2023-02-17T10:40:23.041Z,19.90
2023-02-17T10:42:56.204Z,19.80
2023-02-17T10:45:43.903Z,19.90
2023-02-17T10:48:18.195Z,19.90
2023-02-17T10:50:48.172Z,19.80
2023-02-17T10:53:20.727Z,19.10
2023-02-17T10:56:02.829Z,18.20
2023-02-17T10:58:34.207Z,17.60
2023-02-17T11:01:04.912Z,17.10
2023-02-17T11:03:34.576Z,16.90
2023-02-17T11:06:05.324Z,17.00
2023-02-17T11:08:46.194Z,17.30
2023-02-17T11:11:25.003Z,17.40
2023-02-17T11:14:18.146Z,17.40
2023-02-17T11:16:51.577Z,17.20
2023-02-17T11:19:36.172Z,17.20
2023-02-17T11:22:07.482Z,17.10
2023-02-17T11:24:35.971Z,17.20
2023-02-17T11:27:09.023Z,17.40
2023-02-17T11:29:37.161Z,17.20
2023-02-17T11:32:09.383Z,17.20
2023-02-17T11:34:39.304Z,17.10
2023-02-17T11:37:14.315Z,17.30
2023-02-17T11:39:45.223Z,17.40
2023-02-17T11:42:24.220Z,17.20
2023-02-17T11:44:54.265Z,17.10
2023-02-17T11:47:35.212Z,16.90
2023-02-17T11:50:40.762Z,17.10
2023-02-17T11:53:38.419Z,17.10
2023-02-17T11:56:08.663Z,16.90
2023-02-17T11:58:50.225Z,16.80
2023-02-17T12:01:41.951Z,17.00
2023-02-17T12:04:22.071Z,17.10
2023-02-17T12:07:14.053Z,17.10
2023-02-17T12:10:03.345Z,17.00
2023-02-17T12:12:51.179Z,16.80
2023-02-17T12:15:54.534Z,16.50
2023-02-17T12:18:21.835Z,16.40
2023-02-17T12:21:19.042Z,16.40
2023-02-17T12:23:55.250Z,16.30
2023-02-17T12:26:45.988Z,16.20
2023-02-17T12:29:30.291Z,16.20
2023-02-17T12:32:09.338Z,16.10
2023-02-17T12:34:40.078Z,16.20
2023-02-17T12:37:17.884Z,16.20
2023-02-17T12:39:54.995Z,16.20
2023-02-17T12:42:30.332Z,16.20
2023-02-17T12:45:04.177Z,16.10
2023-02-17T12:47:56.871Z,16.30
2023-02-17T12:50:28.105Z,16.20
2023-02-17T12:53:01.099Z,16.00
2023-02-17T12:55:50.575Z,16.10
2023-02-17T12:58:22.800Z,16.10
2023-02-17T13:00:55.616Z,16.20
2023-02-17T13:03:23.310Z,16.30
2023-02-17T13:06:09.525Z,16.30
2023-02-17T13:08:47.210Z,16.40
2023-02-17T13:11:28.297Z,16.60
2023-02-17T13:13:55.516Z,16.80
2023-02-17T13:16:23.398Z,17.00
2023-02-17T13:18:52.345Z,16.90
2023-02-17T13:21:20.741Z,17.00
2023-02-17T13:24:00.661Z,17.20
2023-02-17T13:26:31.787Z,17.30
2023-02-17T13:29:26.447Z,17.40
2023-02-17T13:31:56.952Z,17.60
2023-02-17T13:34:35.090Z,17.70
2023-02-17T13:37:23.727Z,17.70
2023-02-17T13:39:51.242Z,17.60
2023-02-17T13:42:39.968Z,17.50
2023-02-17T13:45:28.562Z,17.50
2023-02-17T13:48:19.810Z,17.40
2023-02-17T13:50:54.994Z,17.40
2023-02-17T13:53:40.597Z,17.30
2023-02-17T13:56:12.578Z,17.00
2023-02-17T13:58:42.173Z,16.80
2023-02-17T14:01:15.830Z,16.60
2023-02-17T14:03:50.927Z,16.50
2023-02-17T14:06:26.655Z,16.50
2023-02-17T14:08:54.391Z,16.50
2023-02-17T14:11:25.967Z,16.50
2023-02-17T14:13:56.046Z,16.50
2023-02-17T14:16:31.922Z,16.40
2023-02-17T14:19:08.187Z,16.50
2023-02-17T14:21:38.397Z,16.60
2023-02-17T14:24:06.292Z,16.60
2023-02-17T14:26:49.105Z,16.60
2023-02-17T14:29:16.953Z,16.60
2023-02-17T14:31:48.016Z,16.50
2023-02-17T14:34:27.183Z,16.50
2023-02-17T14:36:55.184Z,16.40
2023-02-17T14:39:22.419Z,16.30
2023-02-17T14:41:49.770Z,16.20
2023-02-17T14:44:16.986Z,16.20
2023-02-17T14:46:44.269Z,16.10
2023-02-17T14:49:11.363Z,16.10
2023-02-17T14:51:39.510Z,16.10
2023-02-17T14:54:14.576Z,16.10
2023-02-17T14:57:03.720Z,16.10
2023-02-17T14:59:31.003Z,16.10
2023-02-17T15:01:58.393Z,16.10
2023-02-17T15:04:25.664Z,16.00
2023-02-17T15:06:54.926Z,15.90
2023-02-17T15:09:29.692Z,15.80
2023-02-17T15:11:57.946Z,15.70
2023-02-17T15:14:25.209Z,15.60
2023-02-17T15:16:52.529Z,15.50
2023-02-17T15:19:20.128Z,15.40
2023-02-17T15:21:51.731Z,15.50
2023-02-17T15:24:26.459Z,15.40
2023-02-17T15:26:56.631Z,15.30
2023-02-17T15:29:25.549Z,15.20
2023-02-17T15:31:55.310Z,15.10
2023-02-17T15:34:26.370Z,15.10
2023-02-17T15:36:53.734Z,15.10
2023-02-17T15:39:22.606Z,14.90
2023-02-17T15:41:51.726Z,14.90
2023-02-17T15:44:26.305Z,14.80
2023-02-17T15:46:54.851Z,14.70
2023-02-17T15:49:22.735Z,14.70
2023-02-17T15:51:50.125Z,14.60
2023-02-17T15:54:19.525Z,14.60
2023-02-17T15:56:51.004Z,14.50
2023-02-17T15:59:23.766Z,14.40
2023-02-17T16:01:51.007Z,14.20
2023-02-17T16:04:18.850Z,14.10
2023-02-17T16:06:46.554Z,14.00
2023-02-17T16:09:14.606Z,14.00
2023-02-17T16:11:52.026Z,13.90
2023-02-17T16:14:34.373Z,13.80
2023-02-17T16:17:03.260Z,13.60
2023-02-17T16:19:31.783Z,13.50
2023-02-17T16:21:59.720Z,13.50
2023-02-17T16:24:27.057Z,13.50
2023-02-17T16:26:54.369Z,13.40
2023-02-17T16:29:22.547Z,13.30
2023-02-17T16:31:50.618Z,13.20
2023-02-17T16:34:21.488Z,13.10
2023-02-17T16:36:52.515Z,13.00
2023-02-17T16:39:21.772Z,13.00
2023-02-17T16:41:49.896Z,13.00
2023-02-17T16:44:19.250Z,12.90
2023-02-17T16:46:49.764Z,12.80
2023-02-17T16:49:24.791Z,12.80
2023-02-17T16:51:52.960Z,12.90
2023-02-17T16:54:20.458Z,13.00
2023-02-17T16:56:51.012Z,13.00
2023-02-17T16:59:21.435Z,13.00
2023-02-17T17:01:51.168Z,12.90
2023-02-17T17:04:19.096Z,12.80
2023-02-17T17:06:49.596Z,12.70
2023-02-17T17:09:21.428Z,12.60
2023-02-17T17:11:48.933Z,12.50
2023-02-17T17:14:16.821Z,12.40
2023-02-17T17:16:49.773Z,12.30
2023-02-17T17:19:17.400Z,12.20
2023-02-17T17:21:44.605Z,12.10
2023-02-17T17:24:11.924Z,11.90
2023-02-17T17:26:44.847Z,11.80
2023-02-17T17:29:14.095Z,11.60
2023-02-17T17:31:41.378Z,11.50
2023-02-17T17:34:08.761Z,11.40
2023-02-17T17:36:39.386Z,11.30
2023-02-17T17:39:08.523Z,11.20
2023-02-17T17:41:35.695Z,11.20
2023-02-17T17:44:03.363Z,11.10
2023-02-17T17:46:34.488Z,11.00
2023-02-17T17:49:02.102Z,11.00
2023-02-17T17:51:31.288Z,10.90
2023-02-17T17:53:58.513Z,10.90
2023-02-17T17:56:29.466Z,10.80
2023-02-17T17:58:58.557Z,10.70
2023-02-17T18:01:26.900Z,10.60
2023-02-17T18:03:54.755Z,10.50
2023-02-17T18:06:26.269Z,10.40
2023-02-17T18:08:56.770Z,10.40
2023-02-17T18:11:25.006Z,10.30
2023-02-17T18:13:56.658Z,10.30
2023-02-17T18:16:26.417Z,10.30
2023-02-17T18:18:54.732Z,10.20
2023-02-17T18:21:21.961Z,10.20
2023-02-17T18:23:49.159Z,10.10
2023-02-17T18:26:17.135Z,10.10
2023-02-17T18:28:45.184Z,10.10
2023-02-17T18:31:14.875Z,10.00
2023-02-17T18:33:42.228Z,9.90
2023-02-17T18:36:13.199Z,9.90
2023-02-17T18:38:41.177Z,9.80
2023-02-17T18:41:09.501Z,9.70
2023-02-17T18:43:37.140Z,9.60
2023-02-17T18:46:04.843Z,9.60
2023-02-17T18:48:32.630Z,9.50
2023-02-17T18:50:59.863Z,9.40
2023-02-17T18:53:28.234Z,9.30
2023-02-17T18:55:55.668Z,9.20
2023-02-17T18:58:23.193Z,9.10
2023-02-17T19:00:50.624Z,9.00
2023-02-17T19:03:17.910Z,8.90
2023-02-17T19:05:45.319Z,8.80
2023-02-17T19:08:12.669Z,8.70
2023-02-17T19:10:40.014Z,8.60
2023-02-17T19:13:07.853Z,8.60
2023-02-17T19:15:36.089Z,8.50
2023-02-17T19:18:03.817Z,8.50
2023-02-17T19:20:32.388Z,8.50
2023-02-17T19:23:02.912Z,8.50
2023-02-17T19:25:30.643Z,8.40
2023-02-17T19:27:58.352Z,8.30
2023-02-17T19:30:25.736Z,8.30
2023-02-17T19:32:53.744Z,8.20
2023-02-17T19:35:21.113Z,8.20
2023-02-17T19:37:48.579Z,8.20
2023-02-17T19:40:15.826Z,8.10
2023-02-17T19:42:43.635Z,8.00
2023-02-17T19:45:10.831Z,8.00
2023-02-17T19:47:38.634Z,7.90
2023-02-17T19:50:06.758Z,7.70
2023-02-17T19:52:34.292Z,7.70
2023-02-17T19:55:01.668Z,7.70
2023-02-17T19:57:29.907Z,7.60
2023-02-17T19:59:57.316Z,7.60
2023-02-17T20:02:24.608Z,7.50
2023-02-17T20:04:52.430Z,7.50
2023-02-17T20:07:19.870Z,7.40
2023-02-17T20:09:47.748Z,7.50
2023-02-17T20:12:15.162Z,7.40
2023-02-17T20:14:42.903Z,7.40
2023-02-17T20:17:10.375Z,7.30
2023-02-17T20:19:39.428Z,7.30
2023-02-17T20:22:08.102Z,7.30
2023-02-17T20:24:36.977Z,7.20
2023-02-17T20:27:04.430Z,7.20
2023-02-17T20:29:31.866Z,7.20
2023-02-17T20:31:59.169Z,7.20
2023-02-17T20:34:32.165Z,7.20
2023-02-17T20:36:59.896Z,7.20
2023-02-17T20:39:27.708Z,7.20
2023-02-17T20:41:56.573Z,7.30
2023-02-17T20:44:27.769Z,7.20
2023-02-17T20:46:56.233Z,7.20
2023-02-17T20:49:24.184Z,7.30
2023-02-17T20:51:51.513Z,7.20
2023-02-17T20:54:18.993Z,7.20
2023-02-17T20:56:47.649Z,7.30
2023-02-17T20:59:15.371Z,7.20
2023-02-17T21:01:43.492Z,7.20
2023-02-17T21:04:11.230Z,7.10
2023-02-17T21:06:41.469Z,7.00
2023-02-17T21:09:14.427Z,7.00
2023-02-17T21:11:42.354Z,7.00
2023-02-17T21:14:10.113Z,7.00
2023-02-17T21:16:37.662Z,7.00
2023-02-17T21:19:05.201Z,7.00
2023-02-17T21:21:33.627Z,7.00
2023-02-17T21:24:00.939Z,7.00
2023-02-17T21:26:28.634Z,7.00
2023-02-17T21:28:55.800Z,7.00
2023-02-17T21:31:23.557Z,7.00
2023-02-17T21:33:50.748Z,6.90
2023-02-17T21:36:19.752Z,6.90
2023-02-17T21:38:48.271Z,6.80
2023-02-17T21:41:19.278Z,6.80
2023-02-17T21:44:06.924Z,6.70
2023-02-17T21:46:34.890Z,6.70
2023-02-17T21:49:02.518Z,6.60
2023-02-17T21:51:30.108Z,6.60
2023-02-17T21:53:58.089Z,6.60
2023-02-17T21:56:25.604Z,6.50
2023-02-17T21:58:55.208Z,6.40
2023-02-17T22:01:24.293Z,6.40
2023-02-17T22:03:52.213Z,6.30
2023-02-17T22:06:20.538Z,6.30
2023-02-17T22:08:48.370Z,6.30
2023-02-17T22:11:18.163Z,6.40
2023-02-17T22:13:45.897Z,6.30
2023-02-17T22:16:13.593Z,6.40
2023-02-17T22:18:41.524Z,6.40
2023-02-17T22:21:11.231Z,6.30
2023-02-17T22:23:38.982Z,6.30
2023-02-17T22:26:09.484Z,6.30
2023-02-17T22:28:37.588Z,6.30
2023-02-17T22:31:06.035Z,6.30
2023-02-17T22:33:33.914Z,6.30
2023-02-17T22:36:05.082Z,6.40
2023-02-17T22:38:33.415Z,6.40
2023-02-17T22:41:00.828Z,6.40
2023-02-17T22:43:28.303Z,6.30
2023-02-17T22:45:59.960Z,6.30
2023-02-17T22:48:29.136Z,6.30
2023-02-17T22:50:56.532Z,6.30
2023-02-17T22:53:24.215Z,6.30
2023-02-17T22:55:53.943Z,6.20
2023-02-17T22:58:22.309Z,6.20
2023-02-17T23:00:49.782Z,6.20
2023-02-17T23:03:18.248Z,6.30
2023-02-17T23:05:47.024Z,6.30
2023-02-17T23:08:14.207Z,6.30
2023-02-17T23:10:43.037Z,6.30
2023-02-17T23:13:10.959Z,6.20
2023-02-17T23:15:41.608Z,6.20
2023-02-17T23:18:13.226Z,6.20
2023-02-17T23:20:43.032Z,6.20
2023-02-17T23:23:11.431Z,6.20
2023-02-17T23:25:41.369Z,6.30
2023-02-17T23:28:08.887Z,6.20
2023-02-17T23:30:36.193Z,6.20
2023-02-17T23:33:03.580Z,6.10
2023-02-17T23:35:30.732Z,6.10
2023-02-17T23:37:57.960Z,6.00
2023-02-17T23:40:25.167Z,6.00
2023-02-17T23:42:52.432Z,6.00
2023-02-17T23:45:19.586Z,6.00
2023-02-17T23:47:46.865Z,5.90
2023-02-17T23:50:16.763Z,5.90
2023-02-17T23:52:44.499Z,5.90
2023-02-17T23:55:11.669Z,5.80
2023-02-17T23:57:39.929Z,5.90
